Terminal Aerodrome Forecast
Issued by NWS

Home | Current Version | Previous Version | Text Only | Print | Product List | Glossary Off
Versions: 1 2 3 4 5 6 7 8 9 10 11 12 13 14 15 16 17 18

000
FTUS43 KMPX 310718 AAA
TAFRNH
TAF AMD
KRNH 310718Z 3107/0106 18005KT 6SM BR SKC
     FM310830 20005KT 3SM BR OVC006
      TEMPO 3109/3111 6SM BR SCT006
     FM311500 20011KT P6SM BKN010
     FM311600 20014G22KT P6SM SKC
     FM010000 19007KT P6SM SCT250=

USA.gov is the U.S. government's official web portal to all federal, state and local government web resources and services.